Time;durP1;ratioP1;P1;durP2;ratioP2;P2;SDS_P1;SDS_P2;PMS_P1;PMS_P2;Temp;Humidity;BMP_temperature;BMP_pressure;BME280_temperature;BME280_humidity;BME280_pressure;Samples;Min_cycle;Max_cycle;Signal;HPM_P1;HPM_P2
2023/02/12 00:00:07;;;;;;;28.63;23.63;;;;;;;;;;5050765;28;20230;-82
2023/02/12 00:02:34;;;;;;;27.13;22.10;;;;;;;;;;5050472;28;20199;-82
2023/02/12 00:05:07;;;;;;;28.27;21.53;;;;;;;;;;5051085;28;20292;-82
2023/02/12 00:07:34;;;;;;;33.03;24.90;;;;;;;;;;5045923;28;20375;-81
2023/02/12 00:10:01;;;;;;;26.33;22.40;;;;;;;;;;5046231;28;20233;-82
2023/02/12 00:12:29;;;;;;;26.27;19.87;;;;;;;;;;5049939;28;20266;-82
2023/02/12 00:14:57;;;;;;;25.73;18.83;;;;;;;;;;5037109;28;20281;-82
2023/02/12 00:17:24;;;;;;;33.90;26.77;;;;;;;;;;5043223;28;20847;-82
2023/02/12 00:19:52;;;;;;;25.20;16.43;;;;;;;;;;5030878;28;20287;-81
2023/02/12 00:22:19;;;;;;;24.43;18.47;;;;;;;;;;5040298;28;20570;-82
2023/02/12 00:24:46;;;;;;;26.40;19.80;;;;;;;;;;5050596;28;20211;-82
2023/02/12 00:27:13;;;;;;;25.23;19.23;;;;;;;;;;5050898;28;20741;-82
2023/02/12 00:29:40;;;;;;;23.20;15.53;;;;;;;;;;5050711;28;20198;-83
2023/02/12 00:32:09;;;;;;;22.97;16.70;;;;;;;;;;5051140;28;20203;-82
2023/02/12 00:34:36;;;;;;;24.13;17.57;;;;;;;;;;5050247;28;20226;-82
2023/02/12 00:37:03;;;;;;;25.17;16.40;;;;;;;;;;5050770;28;20262;-82
2023/02/12 00:39:31;;;;;;;24.77;17.63;;;;;;;;;;5050460;28;20226;-81
2023/02/12 00:41:58;;;;;;;20.53;15.33;;;;;;;;;;5050308;28;20292;-81
2023/02/12 00:44:25;;;;;;;23.07;15.17;;;;;;;;;;5050230;28;20198;-81
2023/02/12 00:46:52;;;;;;;24.23;15.93;;;;;;;;;;5050307;28;20620;-80
2023/02/12 00:49:21;;;;;;;25.27;17.97;;;;;;;;;;5050404;28;20238;-83
2023/02/12 00:51:48;;;;;;;25.27;16.40;;;;;;;;;;5050269;28;20289;-81
2023/02/12 00:54:17;;;;;;;23.40;16.90;;;;;;;;;;5050684;28;20653;-82
2023/02/12 00:56:44;;;;;;;25.83;18.03;;;;;;;;;;5049602;28;20280;-83
2023/02/12 00:59:11;;;;;;;29.50;21.47;;;;;;;;;;5050514;28;20245;-82
2023/02/12 01:01:38;;;;;;;27.30;19.40;;;;;;;;;;5050493;28;20235;-82
2023/02/12 01:04:05;;;;;;;31.37;22.13;;;;;;;;;;5050456;28;20257;-82
2023/02/12 01:06:34;;;;;;;29.70;18.90;;;;;;;;;;5051767;28;20206;-82
2023/02/12 01:09:01;;;;;;;28.63;19.20;;;;;;;;;;5053962;28;20233;-81
2023/02/12 01:11:29;;;;;;;31.00;21.23;;;;;;;;;;5053729;28;20569;-81
2023/02/12 01:13:56;;;;;;;33.13;20.40;;;;;;;;;;5053885;28;20264;-82
2023/02/12 01:16:24;;;;;;;31.53;20.60;;;;;;;;;;5052563;28;20727;-82
2023/02/12 01:18:51;;;;;;;33.37;19.47;;;;;;;;;;5053874;28;20199;-81
2023/02/12 01:21:19;;;;;;;30.63;20.07;;;;;;;;;;5053287;28;20236;-82
2023/02/12 01:23:48;;;;;;;35.57;22.30;;;;;;;;;;5053575;28;20283;-82
2023/02/12 01:26:16;;;;;;;32.40;20.73;;;;;;;;;;5052839;28;20719;-82
2023/02/12 01:28:45;;;;;;;34.03;20.77;;;;;;;;;;5051850;28;20239;-82
2023/02/12 01:31:13;;;;;;;32.03;20.77;;;;;;;;;;5052154;28;20234;-82
2023/02/12 01:33:40;;;;;;;34.87;23.00;;;;;;;;;;5052878;28;20756;-81
2023/02/12 01:36:08;;;;;;;32.20;20.77;;;;;;;;;;5053785;28;20668;-82
2023/02/12 01:38:35;;;;;;;33.40;21.77;;;;;;;;;;5040974;28;20322;-82
2023/02/12 01:41:05;;;;;;;34.80;21.63;;;;;;;;;;5044060;28;20246;-81
2023/02/12 01:43:32;;;;;;;31.63;21.43;;;;;;;;;;5051009;28;20737;-82
2023/02/12 01:46:00;;;;;;;34.37;21.73;;;;;;;;;;5052278;28;20683;-82
2023/02/12 01:48:28;;;;;;;34.03;21.47;;;;;;;;;;5053162;28;20303;-82
2023/02/12 01:50:56;;;;;;;34.23;22.17;;;;;;;;;;5051148;28;20738;-81
2023/02/12 01:53:25;;;;;;;38.37;22.80;;;;;;;;;;5053337;28;20238;-80
2023/02/12 01:55:56;;;;;;;34.23;21.80;;;;;;;;;;5051929;28;20291;-81
2023/02/12 01:58:25;;;;;;;37.17;22.77;;;;;;;;;;5053070;28;20281;-82
2023/02/12 02:00:52;;;;;;;35.97;22.17;;;;;;;;;;5051678;28;20298;-81
2023/02/12 02:03:20;;;;;;;40.77;24.43;;;;;;;;;;5052162;28;20257;-81
2023/02/12 02:05:49;;;;;;;38.97;24.43;;;;;;;;;;5050811;28;20629;-81
2023/02/12 02:08:17;;;;;;;40.27;23.17;;;;;;;;;;5052671;28;20235;-82
2023/02/12 02:10:44;;;;;;;42.97;24.03;;;;;;;;;;5052240;28;20226;-81
2023/02/12 02:16:01;;;;;;;41.53;25.97;;;;;;;;;;5052317;28;20272;-82
2023/02/12 02:18:33;;;;;;;41.43;25.33;;;;;;;;;;5051618;28;20318;-81
2023/02/12 02:21:19;;;;;;;40.83;25.70;;;;;;;;;;5052359;28;20293;-81
2023/02/12 02:23:56;;;;;;;43.83;26.20;;;;;;;;;;5035097;28;20207;-82
2023/02/12 02:26:38;;;;;;;44.40;26.97;;;;;;;;;;5052561;28;20235;-81
2023/02/12 02:29:10;;;;;;;48.70;28.37;;;;;;;;;;5048620;28;20226;-82
2023/02/12 02:31:42;;;;;;;44.70;27.33;;;;;;;;;;5052425;28;20275;-82
2023/02/12 02:34:11;;;;;;;47.90;27.43;;;;;;;;;;5052811;28;20249;-82
2023/02/12 02:36:41;;;;;;;49.33;29.17;;;;;;;;;;5052202;28;20741;-82
2023/02/12 02:39:12;;;;;;;46.57;28.70;;;;;;;;;;5051915;28;20270;-82
2023/02/12 02:41:43;;;;;;;50.40;28.57;;;;;;;;;;5052261;28;20231;-82
2023/02/12 02:44:15;;;;;;;49.27;28.37;;;;;;;;;;5052261;28;20238;-82
2023/02/12 02:46:46;;;;;;;47.03;28.70;;;;;;;;;;5051562;28;20754;-80
2023/02/12 02:49:17;;;;;;;48.63;28.17;;;;;;;;;;5051927;28;20215;-81
2023/02/12 02:51:46;;;;;;;49.47;26.93;;;;;;;;;;5052207;28;20227;-81
2023/02/12 02:54:14;;;;;;;48.73;29.30;;;;;;;;;;5051856;28;20250;-81
2023/02/12 02:56:43;;;;;;;47.23;27.77;;;;;;;;;;5051724;28;20305;-81
2023/02/12 02:59:12;;;;;;;50.37;28.63;;;;;;;;;;5046649;28;20319;-81
2023/02/12 03:01:42;;;;;;;48.77;30.03;;;;;;;;;;5039499;28;20206;-82
2023/02/12 03:04:13;;;;;;;47.00;28.17;;;;;;;;;;5031650;28;20203;-83
2023/02/12 03:06:43;;;;;;;45.83;29.10;;;;;;;;;;5048821;28;20260;-81
2023/02/12 03:09:14;;;;;;;47.57;28.73;;;;;;;;;;5051995;28;20646;-82
2023/02/12 03:11:42;;;;;;;49.37;30.63;;;;;;;;;;5051143;28;20230;-82
2023/02/12 03:14:12;;;;;;;48.27;28.97;;;;;;;;;;5051762;28;20223;-82
2023/02/12 03:16:40;;;;;;;48.10;28.17;;;;;;;;;;5050733;28;20233;-81
2023/02/12 03:19:11;;;;;;;48.33;28.90;;;;;;;;;;5049987;28;20280;-80
2023/02/12 03:21:42;;;;;;;44.37;26.77;;;;;;;;;;5049477;28;20309;-81
2023/02/12 03:24:12;;;;;;;47.77;29.47;;;;;;;;;;5051709;28;20573;-82
2023/02/12 03:26:43;;;;;;;43.83;26.53;;;;;;;;;;5050840;28;20284;-82
2023/02/12 03:29:10;;;;;;;46.50;28.67;;;;;;;;;;5049530;28;20282;-81
2023/02/12 03:31:42;;;;;;;49.40;29.47;;;;;;;;;;5047527;28;20284;-83
2023/02/12 03:34:12;;;;;;;50.37;30.10;;;;;;;;;;5051364;28;20283;-81
2023/02/12 03:36:44;;;;;;;47.87;28.80;;;;;;;;;;5037636;28;20298;-82
2023/02/12 03:39:13;;;;;;;45.10;28.63;;;;;;;;;;5031085;28;20815;-83
2023/02/12 03:41:43;;;;;;;46.47;29.07;;;;;;;;;;5031564;28;20644;-82
2023/02/12 03:44:15;;;;;;;49.23;29.63;;;;;;;;;;5031272;28;20283;-81
2023/02/12 03:46:47;;;;;;;46.57;29.37;;;;;;;;;;5031303;28;20208;-82
2023/02/12 03:49:21;;;;;;;48.20;28.07;;;;;;;;;;5050918;28;20217;-82
2023/02/12 03:51:49;;;;;;;50.37;28.93;;;;;;;;;;5050843;28;20203;-82
2023/02/12 03:54:18;;;;;;;47.47;27.73;;;;;;;;;;5051078;28;20231;-82
2023/02/12 03:56:50;;;;;;;45.73;26.83;;;;;;;;;;5051290;28;20226;-82
2023/02/12 03:59:18;;;;;;;51.43;30.47;;;;;;;;;;5050585;28;20238;-81
2023/02/12 04:01:45;;;;;;;41.47;25.23;;;;;;;;;;5050938;28;20231;-82
2023/02/12 04:04:13;;;;;;;47.37;29.13;;;;;;;;;;5050929;28;20234;-82
2023/02/12 04:06:40;;;;;;;47.50;28.80;;;;;;;;;;5050481;28;20740;-82
2023/02/12 04:09:10;;;;;;;46.00;27.53;;;;;;;;;;5051151;28;20226;-82
2023/02/12 04:11:42;;;;;;;45.73;28.30;;;;;;;;;;5050494;28;20290;-82
2023/02/12 04:14:14;;;;;;;47.63;27.67;;;;;;;;;;5050082;28;20266;-81
2023/02/12 04:16:44;;;;;;;47.27;27.60;;;;;;;;;;5050274;28;20294;-81
2023/02/12 04:19:14;;;;;;;42.60;27.80;;;;;;;;;;5048373;28;20231;-81
2023/02/12 04:21:47;;;;;;;44.80;27.73;;;;;;;;;;5049817;28;20202;-81
2023/02/12 04:24:18;;;;;;;41.53;25.67;;;;;;;;;;5050052;28;20623;-81
2023/02/12 04:26:49;;;;;;;40.57;25.83;;;;;;;;;;5049593;28;20232;-82
2023/02/12 04:29:20;;;;;;;44.87;26.60;;;;;;;;;;5049587;28;20294;-81
2023/02/12 04:31:50;;;;;;;41.37;26.53;;;;;;;;;;5049628;28;20203;-81
2023/02/12 04:34:20;;;;;;;42.67;26.57;;;;;;;;;;5049774;28;20297;-81
2023/02/12 04:36:50;;;;;;;42.53;23.80;;;;;;;;;;5050322;28;20202;-81
2023/02/12 04:39:20;;;;;;;40.17;25.07;;;;;;;;;;5049880;28;20314;-82
2023/02/12 04:41:48;;;;;;;32.23;22.07;;;;;;;;;;5037640;28;20283;-82
2023/02/12 04:44:16;;;;;;;40.13;25.87;;;;;;;;;;5054813;28;20238;-81
2023/02/12 04:46:43;;;;;;;40.93;25.80;;;;;;;;;;5053648;28;20200;-81
2023/02/12 04:49:14;;;;;;;42.23;26.03;;;;;;;;;;5054181;28;20231;-82
2023/02/12 04:51:41;;;;;;;38.27;25.00;;;;;;;;;;5051902;28;20231;-81
2023/02/12 04:54:08;;;;;;;39.10;25.33;;;;;;;;;;5053690;28;20307;-81
2023/02/12 04:56:37;;;;;;;39.90;24.27;;;;;;;;;;5053827;28;20224;-82
2023/02/12 04:59:04;;;;;;;37.40;24.57;;;;;;;;;;5053739;28;20274;-81
2023/02/12 05:01:33;;;;;;;38.10;25.53;;;;;;;;;;5053015;28;20230;-82
2023/02/12 05:04:00;;;;;;;38.53;24.30;;;;;;;;;;5053527;28;20643;-82
2023/02/12 05:06:29;;;;;;;38.77;23.83;;;;;;;;;;5053612;28;20298;-82
2023/02/12 05:08:56;;;;;;;38.17;24.53;;;;;;;;;;5053929;28;20199;-81
2023/02/12 05:11:24;;;;;;;37.93;23.93;;;;;;;;;;5053058;28;20749;-80
2023/02/12 05:13:53;;;;;;;39.43;24.07;;;;;;;;;;5053045;28;20314;-81
2023/02/12 05:16:20;;;;;;;40.40;24.33;;;;;;;;;;5053426;28;20200;-81
2023/02/12 05:18:48;;;;;;;35.83;22.67;;;;;;;;;;5053456;28;20314;-82
2023/02/12 05:21:15;;;;;;;38.17;24.03;;;;;;;;;;5053216;28;20222;-81
2023/02/12 05:23:43;;;;;;;37.73;23.83;;;;;;;;;;5051789;28;20235;-81
2023/02/12 05:26:11;;;;;;;37.63;22.60;;;;;;;;;;5053554;28;20322;-82
2023/02/12 05:28:39;;;;;;;35.80;23.53;;;;;;;;;;5053053;28;20239;-82
2023/02/12 05:31:08;;;;;;;35.13;21.90;;;;;;;;;;5052913;28;20667;-82
2023/02/12 05:33:35;;;;;;;37.33;23.63;;;;;;;;;;5052891;28;20295;-82
2023/02/12 05:36:06;;;;;;;34.63;22.73;;;;;;;;;;5053719;28;20223;-81
2023/02/12 05:38:34;;;;;;;34.33;21.77;;;;;;;;;;5053477;28;20255;-82
2023/02/12 05:41:04;;;;;;;33.77;21.83;;;;;;;;;;5051850;28;20234;-82
2023/02/12 05:43:31;;;;;;;33.53;21.83;;;;;;;;;;5052897;28;20923;-82
2023/02/12 05:45:59;;;;;;;33.93;21.70;;;;;;;;;;5052992;28;20226;-81
2023/02/12 05:48:28;;;;;;;34.50;21.67;;;;;;;;;;5053214;28;20286;-82
2023/02/12 05:50:56;;;;;;;31.57;20.37;;;;;;;;;;5051539;28;20226;-82
2023/02/12 05:53:23;;;;;;;32.87;20.50;;;;;;;;;;5052094;28;20293;-81
2023/02/12 05:55:50;;;;;;;31.17;20.73;;;;;;;;;;5052830;28;20231;-81
2023/02/12 05:58:18;;;;;;;34.27;21.50;;;;;;;;;;5053609;28;20317;-82
2023/02/12 06:00:45;;;;;;;31.10;19.97;;;;;;;;;;5052051;28;20650;-81
2023/02/12 06:03:12;;;;;;;30.53;20.07;;;;;;;;;;5051024;28;20301;-81
2023/02/12 06:05:41;;;;;;;29.50;19.07;;;;;;;;;;5052830;28;20298;-81
2023/02/12 06:08:08;;;;;;;30.60;19.73;;;;;;;;;;5053039;28;20226;-82
2023/02/12 06:10:36;;;;;;;29.40;19.33;;;;;;;;;;5050989;28;20257;-81
2023/02/12 06:13:03;;;;;;;27.47;18.00;;;;;;;;;;5052740;28;20674;-81
2023/02/12 06:15:30;;;;;;;29.87;19.07;;;;;;;;;;5052770;28;20302;-81
2023/02/12 06:17:57;;;;;;;26.53;17.70;;;;;;;;;;5042892;28;20196;-81
2023/02/12 06:20:24;;;;;;;28.30;17.97;;;;;;;;;;5045034;28;20297;-80
2023/02/12 06:22:53;;;;;;;27.83;18.70;;;;;;;;;;5036806;28;20298;-80
2023/02/12 06:25:20;;;;;;;28.37;17.97;;;;;;;;;;5033016;28;20301;-81
2023/02/12 06:27:47;;;;;;;27.57;18.03;;;;;;;;;;5033643;28;20239;-81
2023/02/12 06:30:15;;;;;;;27.50;17.67;;;;;;;;;;5052884;28;20204;-82
2023/02/12 06:32:42;;;;;;;27.47;17.20;;;;;;;;;;5052796;28;20225;-81
2023/02/12 06:35:10;;;;;;;26.60;17.87;;;;;;;;;;5052728;28;20294;-80
2023/02/12 06:37:37;;;;;;;25.20;16.67;;;;;;;;;;5035054;28;20234;-81
2023/02/12 06:40:07;;;;;;;27.33;17.03;;;;;;;;;;5050471;28;20247;-81
2023/02/12 06:42:34;;;;;;;24.17;16.47;;;;;;;;;;5051727;28;20259;-81
2023/02/12 06:45:02;;;;;;;24.13;16.53;;;;;;;;;;5051437;28;20707;-81
2023/02/12 06:47:29;;;;;;;23.93;15.80;;;;;;;;;;5050349;28;20665;-81
2023/02/12 06:49:57;;;;;;;25.63;16.10;;;;;;;;;;5050481;28;20225;-80
2023/02/12 06:52:24;;;;;;;24.27;16.00;;;;;;;;;;5051289;28;20198;-81
2023/02/12 06:54:51;;;;;;;22.60;14.43;;;;;;;;;;5051512;28;20355;-80
2023/02/12 06:57:20;;;;;;;23.43;15.40;;;;;;;;;;5050591;28;20641;-82
2023/02/12 06:59:47;;;;;;;24.00;15.13;;;;;;;;;;5051021;28;20283;-81
2023/02/12 07:02:14;;;;;;;22.93;15.53;;;;;;;;;;5051687;28;20632;-80
2023/02/12 07:04:42;;;;;;;22.27;14.73;;;;;;;;;;5051377;28;21888;-81
2023/02/12 07:07:09;;;;;;;23.00;15.07;;;;;;;;;;5051109;28;20233;-80
2023/02/12 07:09:37;;;;;;;24.10;15.27;;;;;;;;;;5050085;28;20234;-81
2023/02/12 07:12:04;;;;;;;22.60;15.23;;;;;;;;;;5050701;28;20199;-80
2023/02/12 07:14:33;;;;;;;22.57;14.50;;;;;;;;;;5050218;28;20691;-80
2023/02/12 07:17:02;;;;;;;21.23;14.47;;;;;;;;;;5045795;28;20235;-80
2023/02/12 07:19:29;;;;;;;20.03;13.73;;;;;;;;;;5048950;28;20262;-81
2023/02/12 07:21:56;;;;;;;20.43;14.00;;;;;;;;;;5050787;28;20237;-80
2023/02/12 07:24:24;;;;;;;22.00;14.87;;;;;;;;;;5051063;28;20649;-81
2023/02/12 07:26:51;;;;;;;19.50;14.50;;;;;;;;;;5050912;28;20314;-80
2023/02/12 07:29:18;;;;;;;21.17;14.03;;;;;;;;;;5050252;28;20293;-81
2023/02/12 07:31:47;;;;;;;21.93;14.37;;;;;;;;;;5050655;28;20294;-81
2023/02/12 07:34:14;;;;;;;20.90;14.17;;;;;;;;;;5050794;28;20265;-80
2023/02/12 07:36:41;;;;;;;20.17;13.50;;;;;;;;;;5048377;28;20250;-80
2023/02/12 07:39:08;;;;;;;20.87;13.83;;;;;;;;;;5048582;28;20704;-81
2023/02/12 07:41:37;;;;;;;21.87;14.73;;;;;;;;;;5051146;28;20373;-80
2023/02/12 07:44:06;;;;;;;22.03;14.60;;;;;;;;;;5049646;28;20232;-81
2023/02/12 07:46:34;;;;;;;21.30;13.73;;;;;;;;;;5051231;28;20206;-80
2023/02/12 07:49:04;;;;;;;21.47;14.00;;;;;;;;;;5051072;28;20238;-81
2023/02/12 07:51:32;;;;;;;21.83;13.67;;;;;;;;;;5049772;28;20204;-80
2023/02/12 07:54:00;;;;;;;20.97;14.00;;;;;;;;;;5050935;28;20200;-80
2023/02/12 07:56:30;;;;;;;21.60;14.37;;;;;;;;;;5049937;28;20196;-80
2023/02/12 07:58:58;;;;;;;23.37;14.70;;;;;;;;;;5050771;28;20234;-81
2023/02/12 08:01:26;;;;;;;21.60;14.60;;;;;;;;;;5049221;28;20287;-80
2023/02/12 08:03:54;;;;;;;21.90;14.30;;;;;;;;;;5050267;28;20211;-80
2023/02/12 08:06:24;;;;;;;21.80;14.17;;;;;;;;;;5049158;28;20268;-81
2023/02/12 08:08:51;;;;;;;21.87;14.60;;;;;;;;;;5031095;28;20228;-81
2023/02/12 08:11:19;;;;;;;23.23;14.97;;;;;;;;;;5038787;28;20199;-81
2023/02/12 08:13:46;;;;;;;24.00;16.30;;;;;;;;;;5050186;28;20253;-79
2023/02/12 08:16:14;;;;;;;23.27;16.00;;;;;;;;;;5040328;28;20243;-81
2023/02/12 08:18:42;;;;;;;23.03;14.93;;;;;;;;;;5033560;28;20220;-80
2023/02/12 08:21:09;;;;;;;25.17;15.87;;;;;;;;;;5048452;28;20203;-80
2023/02/12 08:23:38;;;;;;;26.20;16.60;;;;;;;;;;5048174;28;20268;-80
2023/02/12 08:26:09;;;;;;;25.63;16.10;;;;;;;;;;5031613;28;20227;-80
2023/02/12 08:28:37;;;;;;;26.90;16.27;;;;;;;;;;5029800;28;20295;-80
2023/02/12 08:31:05;;;;;;;24.07;15.93;;;;;;;;;;5035342;28;20295;-81
2023/02/12 08:33:33;;;;;;;26.60;15.80;;;;;;;;;;5029246;28;20227;-80
2023/02/12 08:36:04;;;;;;;23.53;14.53;;;;;;;;;;5031982;28;20367;-80
2023/02/12 08:38:31;;;;;;;22.73;15.00;;;;;;;;;;5044920;28;20230;-81
2023/02/12 08:41:02;;;;;;;22.63;14.20;;;;;;;;;;5055532;28;20278;-80
2023/02/12 08:43:30;;;;;;;26.10;16.23;;;;;;;;;;5055767;28;20290;-82
2023/02/12 08:46:01;;;;;;;25.17;16.83;;;;;;;;;;5055559;28;20238;-81
2023/02/12 08:48:28;;;;;;;24.17;16.60;;;;;;;;;;5055290;28;20692;-81
2023/02/12 08:50:56;;;;;;;25.37;15.83;;;;;;;;;;5055523;28;20299;-81
2023/02/12 08:53:23;;;;;;;25.27;16.43;;;;;;;;;;5054663;28;20211;-81
2023/02/12 08:55:50;;;;;;;24.50;15.83;;;;;;;;;;5050822;28;20674;-81
2023/02/12 08:58:19;;;;;;;25.50;16.10;;;;;;;;;;5054379;28;20253;-79
2023/02/12 09:00:46;;;;;;;25.70;17.30;;;;;;;;;;5058378;28;20730;-82
2023/02/12 09:03:13;;;;;;;30.20;19.33;;;;;;;;;;5056108;28;20196;-81
2023/02/12 09:05:41;;;;;;;24.67;15.90;;;;;;;;;;5054355;28;20775;-81
2023/02/12 09:08:09;;;;;;;23.87;16.43;;;;;;;;;;5054644;28;20295;-80
2023/02/12 09:10:39;;;;;;;22.77;14.37;;;;;;;;;;5053797;28;20239;-81
2023/02/12 09:13:06;;;;;;;27.13;17.20;;;;;;;;;;5052700;28;20631;-81
2023/02/12 09:15:38;;;;;;;25.27;16.23;;;;;;;;;;5054098;28;20208;-81
2023/02/12 09:18:05;;;;;;;25.87;16.97;;;;;;;;;;5054130;28;20228;-81
2023/02/12 09:20:33;;;;;;;26.80;17.00;;;;;;;;;;5054110;28;20227;-81
2023/02/12 09:23:00;;;;;;;25.67;17.17;;;;;;;;;;5053360;28;20224;-81
2023/02/12 09:25:27;;;;;;;24.60;16.20;;;;;;;;;;5051347;28;20224;-80
2023/02/12 09:27:55;;;;;;;24.53;15.43;;;;;;;;;;5052263;28;20682;-80
2023/02/12 09:30:23;;;;;;;23.30;15.57;;;;;;;;;;5053354;28;20254;-79
2023/02/12 09:32:51;;;;;;;27.93;16.73;;;;;;;;;;5051487;28;20597;-80
2023/02/12 09:35:19;;;;;;;23.67;16.43;;;;;;;;;;5041790;28;20691;-79
2023/02/12 09:37:46;;;;;;;27.97;17.90;;;;;;;;;;5051649;28;20235;-78
2023/02/12 09:40:19;;;;;;;26.70;17.33;;;;;;;;;;5051470;28;20712;-79
2023/02/12 09:42:56;;;;;;;24.30;14.80;;;;;;;;;;5052971;28;20201;-78
2023/02/12 09:45:25;;;;;;;24.47;16.13;;;;;;;;;;5050914;28;20287;-81
2023/02/12 09:47:56;;;;;;;43.47;25.47;;;;;;;;;;5066193;28;20211;-77
2023/02/12 09:50:35;;;;;;;27.93;18.33;;;;;;;;;;5059955;28;20196;-81
2023/02/12 09:53:02;;;;;;;24.93;16.10;;;;;;;;;;5048705;28;20211;-80
2023/02/12 09:55:31;;;;;;;25.97;16.53;;;;;;;;;;5052340;28;20686;-79
2023/02/12 09:57:59;;;;;;;26.30;17.07;;;;;;;;;;5047303;28;20298;-80
2023/02/12 10:00:30;;;;;;;24.50;14.87;;;;;;;;;;5053262;28;20317;-79
2023/02/12 10:03:01;;;;;;;26.03;15.77;;;;;;;;;;5051003;28;20200;-78
2023/02/12 10:05:31;;;;;;;23.33;14.97;;;;;;;;;;5043374;28;20224;-79
2023/02/12 10:08:07;;;;;;;24.80;15.83;;;;;;;;;;5033240;28;20214;-80
2023/02/12 10:10:40;;;;;;;25.63;15.73;;;;;;;;;;5044444;28;20325;-79
2023/02/12 10:13:14;;;;;;;22.00;14.93;;;;;;;;;;5044087;28;20268;-79
2023/02/12 10:15:46;;;;;;;22.60;15.13;;;;;;;;;;5043654;28;20196;-80
2023/02/12 10:18:35;;;;;;;21.77;15.00;;;;;;;;;;5043938;28;20306;-80
2023/02/12 10:21:09;;;;;;;24.10;14.40;;;;;;;;;;5049956;28;20318;-79
2023/02/12 10:23:54;;;;;;;24.00;15.17;;;;;;;;;;5047036;28;20259;-79
2023/02/12 10:26:24;;;;;;;25.93;15.90;;;;;;;;;;5042627;28;20294;-79
2023/02/12 10:28:51;;;;;;;26.43;19.17;;;;;;;;;;5039446;28;20298;-80
2023/02/12 10:31:22;;;;;;;49.10;31.63;;;;;;;;;;5049863;28;20207;-79
2023/02/12 10:33:53;;;;;;;22.23;14.37;;;;;;;;;;5041543;28;20207;-81
2023/02/12 10:36:26;;;;;;;22.50;14.93;;;;;;;;;;5047567;28;20229;-79
2023/02/12 10:38:56;;;;;;;26.67;17.63;;;;;;;;;;5033960;28;20298;-80
2023/02/12 10:41:24;;;;;;;25.10;16.10;;;;;;;;;;5032074;28;20323;-80
2023/02/12 10:43:52;;;;;;;26.27;17.73;;;;;;;;;;5033009;28;20206;-79
2023/02/12 10:46:19;;;;;;;22.50;15.27;;;;;;;;;;5032274;28;20235;-81
2023/02/12 10:48:48;;;;;;;21.93;15.27;;;;;;;;;;5032201;28;20561;-79
2023/02/12 10:51:31;;;;;;;71.80;40.33;;;;;;;;;;5031911;28;20204;-80
2023/02/12 10:54:19;;;;;;;24.03;15.63;;;;;;;;;;5032659;28;20238;-79
2023/02/12 10:56:46;;;;;;;22.63;14.80;;;;;;;;;;5032465;28;20202;-79
2023/02/12 10:59:23;;;;;;;20.37;14.07;;;;;;;;;;5032394;28;20286;-79
2023/02/12 11:01:50;;;;;;;21.53;14.87;;;;;;;;;;5032286;28;20226;-78
2023/02/12 11:04:21;;;;;;;21.97;14.13;;;;;;;;;;5032345;28;20232;-80
2023/02/12 11:06:59;;;;;;;24.37;16.73;;;;;;;;;;5032065;28;20203;-80
2023/02/12 11:09:29;;;;;;;26.07;17.50;;;;;;;;;;5032204;28;20233;-79
2023/02/12 11:11:56;;;;;;;31.90;20.97;;;;;;;;;;5040904;28;20290;-79
2023/02/12 11:14:24;;;;;;;21.97;15.67;;;;;;;;;;5051884;28;20288;-79
2023/02/12 11:16:53;;;;;;;54.37;30.73;;;;;;;;;;5051633;28;20691;-78
2023/02/12 11:19:21;;;;;;;21.17;14.70;;;;;;;;;;5052022;28;20231;-79
2023/02/12 11:21:48;;;;;;;21.00;14.13;;;;;;;;;;5051357;28;20781;-79
2023/02/12 11:24:29;;;;;;;35.40;24.40;;;;;;;;;;5051801;28;20273;-80
2023/02/12 11:27:12;;;;;;;29.50;18.97;;;;;;;;;;5051597;28;20212;-79
2023/02/12 11:29:39;;;;;;;31.87;20.50;;;;;;;;;;5051821;28;20553;-80
2023/02/12 11:32:08;;;;;;;39.23;25.63;;;;;;;;;;5052189;28;20253;-79
2023/02/12 11:34:35;;;;;;;21.47;15.43;;;;;;;;;;5051897;28;20202;-79
2023/02/12 11:37:03;;;;;;;19.83;13.67;;;;;;;;;;5051740;28;20279;-79
2023/02/12 11:39:34;;;;;;;21.50;13.40;;;;;;;;;;5051483;28;20192;-80
2023/02/12 11:42:03;;;;;;;18.20;12.00;;;;;;;;;;5051511;28;20302;-79
2023/02/12 11:44:33;;;;;;;20.27;12.30;;;;;;;;;;5051755;28;20239;-79
2023/02/12 11:47:05;;;;;;;21.83;13.80;;;;;;;;;;5051642;28;20195;-79
2023/02/12 11:49:33;;;;;;;17.27;11.70;;;;;;;;;;5051147;28;20276;-79
2023/02/12 11:52:02;;;;;;;17.07;11.80;;;;;;;;;;5051508;28;20203;-78
2023/02/12 11:54:31;;;;;;;17.10;11.70;;;;;;;;;;5051267;28;20223;-77
2023/02/12 11:56:59;;;;;;;17.57;11.10;;;;;;;;;;5051362;28;20206;-78
2023/02/12 11:59:34;;;;;;;17.20;11.47;;;;;;;;;;5051318;28;20200;-78
2023/02/12 12:02:05;;;;;;;13.90;10.47;;;;;;;;;;5051575;28;20322;-79
2023/02/12 12:04:34;;;;;;;13.73;10.40;;;;;;;;;;5050947;28;20245;-80
2023/02/12 12:07:03;;;;;;;14.17;10.13;;;;;;;;;;5051221;28;20286;-79
2023/02/12 12:09:33;;;;;;;16.43;10.70;;;;;;;;;;5051550;28;20199;-79
2023/02/12 12:12:05;;;;;;;12.97;9.83;;;;;;;;;;5051183;28;20211;-79
2023/02/12 12:19:51;;;;;;;11.93;9.53;;;;;;;;;;5050741;28;20195;-78
2023/02/12 12:20:12;;;;;;;12.53;10.10;;;;;;;;;;5051057;28;20227;-79
2023/02/12 12:22:43;;;;;;;12.93;9.80;;;;;;;;;;5051114;28;20231;-79
2023/02/12 12:25:16;;;;;;;13.73;10.37;;;;;;;;;;5051100;28;20226;-79
2023/02/12 12:28:06;;;;;;;12.80;9.40;;;;;;;;;;5051113;28;20208;-78
2023/02/12 12:30:45;;;;;;;12.87;9.27;;;;;;;;;;5051012;28;20196;-79
2023/02/12 12:33:17;;;;;;;13.07;9.87;;;;;;;;;;5051149;28;20219;-80
2023/02/12 12:35:49;;;;;;;10.67;8.93;;;;;;;;;;5050961;28;20647;-79
2023/02/12 12:38:20;;;;;;;10.97;8.67;;;;;;;;;;5051121;28;20202;-80
2023/02/12 12:40:55;;;;;;;11.83;8.77;;;;;;;;;;5050723;28;20270;-78
2023/02/12 12:43:26;;;;;;;11.10;8.60;;;;;;;;;;5051040;28;20227;-78
2023/02/12 12:46:17;;;;;;;12.03;8.50;;;;;;;;;;5050798;28;20222;-79
2023/02/12 12:48:49;;;;;;;9.83;7.80;;;;;;;;;;5051031;28;20231;-78
2023/02/12 12:51:24;;;;;;;11.17;8.13;;;;;;;;;;5050819;28;20192;-79
2023/02/12 12:53:56;;;;;;;10.27;8.07;;;;;;;;;;5050768;28;20238;-79
2023/02/12 12:56:29;;;;;;;9.63;7.93;;;;;;;;;;5050941;28;20617;-80
2023/02/12 12:59:05;;;;;;;11.07;8.13;;;;;;;;;;5050916;28;20199;-80
2023/02/12 13:01:47;;;;;;;11.23;7.63;;;;;;;;;;5050921;28;20312;-80
2023/02/12 13:04:32;;;;;;;9.17;7.60;;;;;;;;;;5037994;28;20234;-79
2023/02/12 13:07:13;;;;;;;9.50;7.47;;;;;;;;;;5054705;28;20200;-80
2023/02/12 13:09:56;;;;;;;9.67;7.40;;;;;;;;;;5054661;28;20250;-79
2023/02/12 13:12:34;;;;;;;8.97;7.40;;;;;;;;;;5051829;28;20244;-80
2023/02/12 13:15:06;;;;;;;8.57;6.90;;;;;;;;;;5054428;28;20195;-80
2023/02/12 13:17:38;;;;;;;9.63;7.10;;;;;;;;;;5053864;28;20290;-79
2023/02/12 13:20:09;;;;;;;9.17;6.77;;;;;;;;;;5054281;28;20195;-79
2023/02/12 13:22:40;;;;;;;8.77;6.90;;;;;;;;;;5054302;28;20269;-80
2023/02/12 13:25:15;;;;;;;8.63;7.57;;;;;;;;;;5054293;28;20211;-80
2023/02/12 13:27:44;;;;;;;7.63;6.63;;;;;;;;;;5054128;28;20571;-79
2023/02/12 13:30:20;;;;;;;8.60;7.07;;;;;;;;;;5054250;28;20231;-80
2023/02/12 13:32:49;;;;;;;8.10;6.53;;;;;;;;;;5053806;28;20235;-79
2023/02/12 13:35:20;;;;;;;8.17;6.93;;;;;;;;;;5053946;28;20232;-79
2023/02/12 13:37:48;;;;;;;7.73;6.63;;;;;;;;;;5054019;28;20234;-80
2023/02/12 13:40:17;;;;;;;7.83;6.03;;;;;;;;;;5053609;28;20203;-79
2023/02/12 13:42:48;;;;;;;7.40;6.30;;;;;;;;;;5053832;28;20234;-78
2023/02/12 13:45:22;;;;;;;8.20;7.00;;;;;;;;;;5053656;28;20635;-80
2023/02/12 13:47:55;;;;;;;8.70;6.87;;;;;;;;;;5053712;28;20200;-80
2023/02/12 13:50:29;;;;;;;8.37;7.20;;;;;;;;;;5053937;28;20196;-80
2023/02/12 13:53:00;;;;;;;7.93;6.70;;;;;;;;;;5053535;28;20289;-80
2023/02/12 13:55:33;;;;;;;8.13;6.93;;;;;;;;;;5053802;28;20196;-79
2023/02/12 13:58:19;;;;;;;7.50;6.37;;;;;;;;;;5053448;28;20254;-80
2023/02/12 14:00:59;;;;;;;7.37;6.17;;;;;;;;;;5053240;28;20258;-79
2023/02/12 14:03:29;;;;;;;7.17;5.80;;;;;;;;;;5053604;28;20286;-80
2023/02/12 14:06:10;;;;;;;7.03;6.33;;;;;;;;;;5053320;28;20195;-79
2023/02/12 14:08:38;;;;;;;6.90;5.87;;;;;;;;;;5053411;28;20254;-80
2023/02/12 14:11:07;;;;;;;6.37;5.53;;;;;;;;;;5053310;28;20684;-80
2023/02/12 14:13:37;;;;;;;6.97;5.53;;;;;;;;;;5052160;28;20319;-80
2023/02/12 14:16:19;;;;;;;6.90;5.73;;;;;;;;;;5052798;28;20227;-79
2023/02/12 14:18:48;;;;;;;6.60;5.60;;;;;;;;;;5052974;28;20200;-79
2023/02/12 14:21:42;;;;;;;6.83;6.10;;;;;;;;;;5053224;28;20310;-80
2023/02/12 14:24:29;;;;;;;6.80;5.63;;;;;;;;;;5052821;28;20718;-80
2023/02/12 14:26:56;;;;;;;7.03;6.33;;;;;;;;;;5053132;28;20572;-80
2023/02/12 14:29:24;;;;;;;6.97;6.03;;;;;;;;;;5052529;28;20291;-79
2023/02/12 14:31:51;;;;;;;7.73;5.97;;;;;;;;;;5053229;28;20936;-79
2023/02/12 14:34:49;;;;;;;7.30;6.27;;;;;;;;;;5052987;28;20286;-80
2023/02/12 14:37:19;;;;;;;7.17;6.03;;;;;;;;;;5052503;28;20227;-79
2023/02/12 14:39:46;;;;;;;8.83;6.13;;;;;;;;;;5052809;28;20195;-81
2023/02/12 14:42:33;;;;;;;6.90;5.80;;;;;;;;;;5052996;28;20224;-81